Time;durP1;ratioP1;P1;durP2;ratioP2;P2;SDS_P1;SDS_P2;PMS_P1;PMS_P2;Temp;Humidity;BMP_temperature;BMP_pressure;BME280_temperature;BME280_humidity;BME280_pressure;Samples;Min_cycle;Max_cycle;Signal;HPM_P1;HPM_P2
2022/06/05 00:00:11;;;;;;;10.27;4.13;;;;;;;19.70;63.13;100768.94;5077067;28;20471;-71
2022/06/05 00:02:53;;;;;;;10.07;2.85;;;;;;;19.76;63.06;100779.75;5085688;28;20075;-72
2022/06/05 00:05:23;;;;;;;6.57;2.92;;;;;;;19.78;63.12;100791.56;5077170;28;20094;-73
2022/06/05 00:08:04;;;;;;;8.77;2.78;;;;;;;19.64;62.93;100774.75;5090937;28;20082;-72
2022/06/05 00:10:39;;;;;;;4.90;2.78;;;;;;;19.62;63.26;100768.59;5077821;28;20083;-72
2022/06/05 00:13:27;;;;;;;6.88;3.15;;;;;;;19.69;62.92;100793.56;5086958;28;20082;-73
2022/06/05 00:15:56;;;;;;;8.57;2.70;;;;;;;19.65;63.12;100781.25;5088317;28;20036;-72
2022/06/05 00:18:23;;;;;;;9.05;3.75;;;;;;;19.52;63.38;100768.94;5089140;28;20126;-73
2022/06/05 00:20:50;;;;;;;7.28;3.17;;;;;;;19.63;63.35;100775.94;5086420;28;20143;-73
2022/06/05 00:23:17;;;;;;;6.43;3.50;;;;;;;19.77;63.20;100789.06;5090323;28;20080;-73
2022/06/05 00:25:53;;;;;;;8.35;3.25;;;;;;;20.07;63.04;100787.97;5076861;28;20086;-71
2022/06/05 00:29:08;;;;;;;8.20;2.95;;;;;;;20.38;62.48;100798.19;5076463;28;20140;-72
2022/06/05 00:31:45;;;;;;;13.43;3.00;;;;;;;20.34;62.41;100791.50;5069962;28;20158;-71
2022/06/05 00:34:12;;;;;;;6.15;2.53;;;;;;;20.20;62.20;100783.25;5089098;28;20048;-73
2022/06/05 00:36:57;;;;;;;9.95;2.47;;;;;;;20.16;62.21;100804.13;5086180;28;20106;-73
2022/06/05 00:39:45;;;;;;;8.95;2.60;;;;;;;19.92;62.29;100797.03;5078249;28;20082;-72
2022/06/05 00:42:19;;;;;;;5.35;2.17;;;;;;;19.56;62.28;100747.25;5086592;28;20218;-71
2022/06/05 00:44:47;;;;;;;10.13;3.00;;;;;;;19.80;62.26;100811.06;5089488;28;20209;-71
2022/06/05 00:47:17;;;;;;;7.93;2.65;;;;;;;19.73;62.24;100803.09;5087531;28;20142;-71
2022/06/05 00:50:00;;;;;;;7.65;2.25;;;;;;;19.53;62.68;100781.91;5087758;28;20496;-69
2022/06/05 00:52:31;;;;;;;4.88;2.28;;;;;;;19.71;62.35;100805.41;5081787;28;20129;-71
2022/06/05 00:54:58;;;;;;;7.45;2.42;;;;;;;19.71;62.41;100813.09;5077287;28;20406;-72
2022/06/05 00:57:33;;;;;;;4.55;2.45;;;;;;;19.70;62.55;100808.59;5067297;28;20057;-73
2022/06/05 01:00:04;;;;;;;7.35;2.00;;;;;;;19.77;62.54;100811.75;5090656;28;20123;-73
2022/06/05 01:02:31;;;;;;;5.90;2.25;;;;;;;19.69;62.27;100806.91;5086046;28;20071;-72
2022/06/05 01:04:59;;;;;;;9.52;2.30;;;;;;;19.74;62.33;100812.41;5094503;28;20135;-71
2022/06/05 01:07:26;;;;;;;6.72;2.72;;;;;;;19.64;62.29;100780.41;5079784;28;20048;-72
2022/06/05 01:09:53;;;;;;;13.32;3.00;;;;;;;19.77;62.09;100809.75;5085532;28;20040;-70
2022/06/05 01:12:39;;;;;;;7.32;2.28;;;;;;;19.62;62.30;100788.41;5083087;28;20441;-71
2022/06/05 01:15:30;;;;;;;5.43;1.80;;;;;;;19.70;61.88;100794.44;5091204;28;20076;-72
2022/06/05 01:18:17;;;;;;;8.38;2.55;;;;;;;19.63;61.95;100795.75;5072192;28;20056;-72
2022/06/05 01:21:05;;;;;;;6.18;2.47;;;;;;;19.59;61.87;100791.91;5087408;28;20083;-72
2022/06/05 01:23:53;;;;;;;7.07;2.30;;;;;;;19.52;61.94;100788.75;5087219;28;20520;-72
2022/06/05 01:26:30;;;;;;;4.28;2.30;;;;;;;19.56;62.03;100792.59;5082610;28;20196;-73
2022/06/05 01:29:04;;;;;;;7.82;3.60;;;;;;;19.43;61.90;100779.44;5090594;28;20044;-73
2022/06/05 01:31:41;;;;;;;11.35;3.20;;;;;;;19.40;62.00;100777.25;5089779;28;20056;-72
2022/06/05 01:34:32;;;;;;;6.03;2.83;;;;;;;19.47;61.90;100791.75;5085571;28;20048;-71
2022/06/05 01:37:08;;;;;;;10.85;3.03;;;;;;;19.48;62.04;100799.06;5090801;28;20063;-71
2022/06/05 01:39:38;;;;;;;7.97;2.53;;;;;;;19.40;62.03;100797.09;5087894;28;20105;-71
2022/06/05 01:42:18;;;;;;;7.07;2.10;;;;;;;19.33;61.73;100796.75;5087166;28;20560;-71
2022/06/05 01:44:48;;;;;;;6.65;2.50;;;;;;;19.40;61.62;100806.41;5089910;28;20075;-72
2022/06/05 01:47:23;;;;;;;6.22;2.63;;;;;;;19.30;61.71;100788.94;5090404;28;20052;-72
2022/06/05 01:50:01;;;;;;;5.55;2.30;;;;;;;19.35;62.03;100794.41;5083262;28;20534;-72
2022/06/05 01:52:45;;;;;;;8.05;2.50;;;;;;;19.40;62.07;100809.25;5091340;28;20447;-71
2022/06/05 01:55:22;;;;;;;5.25;1.95;;;;;;;19.38;62.34;100807.91;5089037;28;20077;-72
2022/06/05 01:57:54;;;;;;;5.15;2.20;;;;;;;19.35;62.19;100794.41;5074342;28;20135;-72
2022/06/05 02:00:22;;;;;;;7.57;2.47;;;;;;;19.34;62.29;100792.75;5088784;28;20550;-71
2022/06/05 02:03:08;;;;;;;5.53;2.28;;;;;;;19.39;62.06;100806.75;5094164;28;20101;-71
2022/06/05 02:05:42;;;;;;;8.55;2.75;;;;;;;19.38;62.01;100811.59;5089409;28;20463;-71
2022/06/05 02:08:19;;;;;;;6.10;2.40;;;;;;;19.37;61.99;100809.09;5091128;28;20134;-72
2022/06/05 02:10:55;;;;;;;4.82;2.47;;;;;;;19.36;62.10;100816.75;5083518;28;20516;-71
2022/06/05 02:13:22;;;;;;;7.55;2.80;;;;;;;19.29;62.02;100807.94;5082221;28;20435;-72
2022/06/05 02:15:49;;;;;;;9.73;2.88;;;;;;;19.24;61.98;100798.75;5073683;28;20047;-72
2022/06/05 02:18:16;;;;;;;5.32;2.38;;;;;;;19.31;62.15;100807.56;5077014;28;20060;-72
2022/06/05 02:20:44;;;;;;;4.18;2.20;;;;;;;19.34;62.28;100815.41;5082218;28;20068;-72
2022/06/05 02:23:18;;;;;;;5.43;2.17;;;;;;;19.38;62.25;100799.41;5082512;28;20053;-71
2022/06/05 02:25:46;;;;;;;6.47;2.80;;;;;;;19.49;62.07;100822.59;5086120;28;20056;-69
2022/06/05 02:28:16;;;;;;;6.07;2.33;;;;;;;19.50;62.04;100812.91;5090687;28;20086;-69
2022/06/05 02:30:58;;;;;;;10.60;3.03;;;;;;;19.55;61.57;100824.88;5088051;28;20477;-71
2022/06/05 02:33:59;;;;;;;6.88;2.15;;;;;;;19.42;61.76;100806.09;5077808;28;20056;-72
2022/06/05 02:36:50;;;;;;;5.35;2.50;;;;;;;19.47;61.86;100817.25;5088663;28;20138;-70
2022/06/05 02:39:35;;;;;;;7.30;2.55;;;;;;;19.45;61.81;100808.22;5090093;28;20472;-71
2022/06/05 02:42:34;;;;;;;9.95;2.35;;;;;;;19.50;61.68;100807.25;5086046;28;20064;-71
2022/06/05 02:45:27;;;;;;;5.37;2.07;;;;;;;19.75;61.36;100802.72;5081470;28;20080;-75
2022/06/05 02:48:16;;;;;;;4.88;2.00;;;;;;;19.94;60.88;100811.69;5084426;28;20086;-76
2022/06/05 02:51:01;;;;;;;4.32;2.17;;;;;;;19.97;60.63;100801.69;5086590;28;20040;-75
2022/06/05 02:53:28;;;;;;;10.82;2.63;;;;;;;19.84;60.82;100800.72;5088920;28;20044;-74
2022/06/05 02:55:55;;;;;;;3.95;2.00;;;;;;;19.80;60.88;100794.06;5092146;28;20113;-73
2022/06/05 02:58:22;;;;;;;3.13;1.90;;;;;;;20.21;60.30;100812.47;5089565;28;20143;-75
2022/06/05 03:03:35;;;;;;;3.17;1.63;;;;;;;20.09;60.31;100821.66;5084969;28;20058;-73
2022/06/05 03:06:03;;;;;;;5.70;2.13;;;;;;;20.08;60.49;100811.50;5087831;28;20487;-76
2022/06/05 03:08:30;;;;;;;6.70;2.25;;;;;;;19.69;60.22;100778.56;5084141;28;20048;-71
2022/06/05 03:10:57;;;;;;;4.95;2.25;;;;;;;19.77;60.16;100814.56;5082491;28;20082;-72
2022/06/05 03:13:24;;;;;;;5.13;1.83;;;;;;;19.69;60.33;100823.91;5088890;28;20322;-72
2022/06/05 03:15:51;;;;;;;6.18;2.00;;;;;;;19.54;60.51;100805.41;5086741;28;20140;-73
2022/06/05 03:18:18;;;;;;;6.07;2.60;;;;;;;19.62;60.55;100833.75;5092289;28;20135;-73
2022/06/05 03:20:45;;;;;;;4.47;2.05;;;;;;;19.40;60.29;100808.41;5085515;28;20132;-71
2022/06/05 03:23:12;;;;;;;10.38;2.22;;;;;;;19.38;60.42;100805.06;5075380;28;20083;-73
2022/06/05 03:25:41;;;;;;;5.90;2.25;;;;;;;19.21;60.70;100794.59;5086651;28;20048;-73
2022/06/05 03:28:09;;;;;;;3.17;1.77;;;;;;;19.31;60.84;100816.91;5094491;28;20052;-70
2022/06/05 03:30:39;;;;;;;6.35;2.20;;;;;;;19.28;60.92;100811.94;5095458;28;20063;-70
2022/06/05 03:33:07;;;;;;;6.63;2.63;;;;;;;19.27;60.75;100823.56;5095700;28;20057;-72
2022/06/05 03:35:42;;;;;;;6.55;2.13;;;;;;;19.22;61.05;100824.59;5099391;28;20056;-70
2022/06/05 03:38:10;;;;;;;5.28;2.83;;;;;;;19.21;60.88;100827.72;5091944;28;20084;-71
2022/06/05 03:40:46;;;;;;;4.55;2.20;;;;;;;19.05;60.93;100805.59;5080870;28;20143;-71
2022/06/05 03:43:15;;;;;;;6.22;2.75;;;;;;;19.09;60.95;100825.56;5089774;28;20130;-71
2022/06/05 03:45:44;;;;;;;9.32;2.25;;;;;;;18.96;60.99;100818.88;5085149;28;20434;-70
2022/06/05 03:48:12;;;;;;;6.10;2.30;;;;;;;18.94;61.45;100824.06;5093187;28;20521;-70
2022/06/05 03:50:40;;;;;;;4.80;2.40;;;;;;;18.73;61.40;100800.38;5083616;28;20043;-70
2022/06/05 03:53:07;;;;;;;9.30;2.33;;;;;;;18.74;61.54;100813.38;5092518;28;20136;-70
2022/06/05 03:55:34;;;;;;;7.25;2.70;;;;;;;18.74;61.39;100828.34;5086847;28;20124;-71
2022/06/05 03:58:02;;;;;;;6.47;3.38;;;;;;;18.54;61.85;100803.47;5083988;28;20134;-71
2022/06/05 04:00:29;;;;;;;6.93;3.92;;;;;;;18.47;61.66;100801.09;5085126;28;20127;-71
2022/06/05 04:02:55;;;;;;;8.38;3.95;;;;;;;18.57;61.64;100826.25;5078006;28;20043;-70
2022/06/05 04:05:23;;;;;;;8.82;3.67;;;;;;;18.41;61.68;100811.72;5085133;28;20146;-70
2022/06/05 04:07:51;;;;;;;6.00;3.30;;;;;;;18.54;62.14;100831.75;5092174;28;20087;-70
2022/06/05 04:10:18;;;;;;;5.15;2.88;;;;;;;18.47;62.45;100821.72;5084795;28;20095;-70
2022/06/05 04:12:46;;;;;;;8.52;2.65;;;;;;;18.43;62.39;100822.72;5091158;28;20047;-71
2022/06/05 04:15:14;;;;;;;3.58;2.80;;;;;;;18.50;62.64;100830.75;5088841;28;20048;-71
2022/06/05 04:17:41;;;;;;;4.10;2.60;;;;;;;18.38;62.35;100811.53;5086018;28;20531;-71
2022/06/05 04:20:09;;;;;;;7.70;3.00;;;;;;;18.42;62.51;100812.56;5090658;28;20072;-72
2022/06/05 04:22:38;;;;;;;6.45;3.30;;;;;;;18.33;62.83;100814.53;5116429;28;20044;-70
2022/06/05 04:25:08;;;;;;;6.30;3.73;;;;;;;18.28;62.81;100809.84;5098778;28;20078;-69
2022/06/05 04:27:36;;;;;;;8.93;2.95;;;;;;;18.29;62.82;100808.72;5106414;28;20090;-70
2022/06/05 04:30:04;;;;;;;5.53;2.88;;;;;;;18.37;62.98;100826.84;5091472;28;20067;-69
2022/06/05 04:32:31;;;;;;;7.25;3.13;;;;;;;18.38;63.41;100837.00;5098021;28;20052;-70
2022/06/05 04:34:58;;;;;;;8.95;3.08;;;;;;;18.29;63.41;100833.28;5114903;28;20071;-70
2022/06/05 04:37:26;;;;;;;4.18;2.72;;;;;;;18.25;63.37;100818.97;5102244;28;20077;-71
2022/06/05 04:39:53;;;;;;;5.07;3.30;;;;;;;18.46;63.40;100851.19;5108496;28;20045;-70
2022/06/05 04:42:20;;;;;;;8.27;2.95;;;;;;;18.36;63.56;100836.47;5101380;28;20098;-71
2022/06/05 04:44:47;;;;;;;6.10;2.90;;;;;;;18.44;63.60;100850.66;5087123;28;20084;-70
2022/06/05 04:47:14;;;;;;;4.78;3.45;;;;;;;18.52;63.88;100853.84;5093301;28;20052;-69
2022/06/05 04:49:41;;;;;;;10.55;4.18;;;;;;;18.61;63.49;100863.22;5105200;28;20032;-69
2022/06/05 04:52:08;;;;;;;9.45;3.55;;;;;;;18.64;63.72;100859.72;5107896;28;20101;-71
2022/06/05 04:54:35;;;;;;;5.88;2.90;;;;;;;18.59;63.73;100846.56;5113565;28;20048;-71
2022/06/05 04:57:02;;;;;;;9.18;2.70;;;;;;;18.57;63.29;100848.88;5115011;28;20052;-69
2022/06/05 04:59:29;;;;;;;6.57;2.97;;;;;;;18.70;63.56;100864.09;5115494;28;20043;-70
2022/06/05 05:01:56;;;;;;;6.63;2.47;;;;;;;18.69;63.50;100868.88;5113333;28;20044;-71
2022/06/05 05:04:23;;;;;;;7.07;3.15;;;;;;;18.64;63.13;100857.72;5113672;28;20048;-71
2022/06/05 05:06:50;;;;;;;5.53;2.63;;;;;;;18.78;63.24;100877.44;5115783;28;20044;-71
2022/06/05 05:09:17;;;;;;;9.32;4.03;;;;;;;18.67;63.43;100859.09;5115962;28;20044;-71
2022/06/05 05:11:44;;;;;;;10.10;2.55;;;;;;;18.67;63.13;100870.41;5108403;28;20024;-71
2022/06/05 05:14:11;;;;;;;7.13;2.20;;;;;;;18.74;63.11;100873.59;5116809;28;20051;-71
2022/06/05 05:16:39;;;;;;;7.60;2.38;;;;;;;18.61;63.16;100849.91;5115691;28;20044;-71
2022/06/05 05:19:07;;;;;;;6.13;2.72;;;;;;;18.69;63.12;100863.22;5112219;28;20052;-70
2022/06/05 05:21:34;;;;;;;6.60;2.28;;;;;;;18.76;62.92;100873.25;5115715;28;20040;-70
2022/06/05 05:24:01;;;;;;;5.15;2.30;;;;;;;18.74;63.04;100869.94;5111790;28;20039;-71
2022/06/05 05:26:31;;;;;;;6.78;2.80;;;;;;;18.89;62.82;100897.78;5108685;28;20051;-73
2022/06/05 05:29:00;;;;;;;7.57;2.45;;;;;;;18.92;62.76;100899.97;5114499;28;20044;-71
2022/06/05 05:31:33;;;;;;;5.22;2.40;;;;;;;18.86;62.68;100890.78;5108489;28;20049;-70
2022/06/05 05:34:00;;;;;;;10.77;2.90;;;;;;;18.95;62.90;100907.78;5110630;28;20059;-73
2022/06/05 05:36:28;;;;;;;4.00;2.60;;;;;;;18.99;62.60;100903.13;5111597;28;20028;-72
2022/06/05 05:44:35;;;;;;;8.10;2.20;;;;;;;19.36;62.02;100896.03;5111279;28;20054;-71
2022/06/05 05:47:08;;;;;;;7.43;2.83;;;;;;;19.46;61.63;100894.06;5115303;28;20024;-72
2022/06/05 05:49:36;;;;;;;20.85;7.10;;;;;;;19.47;61.30;100893.72;5112577;28;20044;-71
2022/06/05 05:52:04;;;;;;;11.88;5.18;;;;;;;19.46;61.49;100892.06;5111864;28;20043;-72
2022/06/05 05:54:32;;;;;;;6.43;3.20;;;;;;;19.54;60.91;100896.88;5114025;28;20044;-73
2022/06/05 05:56:59;;;;;;;7.55;2.75;;;;;;;19.54;61.15;100896.06;5112484;28;20051;-72
2022/06/05 05:59:26;;;;;;;9.88;3.03;;;;;;;19.56;61.00;100900.22;5112846;28;20063;-71
2022/06/05 06:01:53;;;;;;;8.68;3.00;;;;;;;19.49;61.10;100899.91;5108735;28;20039;-71
2022/06/05 06:04:20;;;;;;;8.43;3.00;;;;;;;19.52;61.08;100896.41;5109410;28;20040;-72
2022/06/05 06:06:50;;;;;;;6.45;3.20;;;;;;;19.58;60.89;100909.22;5116487;28;20051;-72
2022/06/05 06:09:19;;;;;;;5.55;2.25;;;;;;;19.43;61.11;100898.38;5105982;28;20055;-71
2022/06/05 06:11:47;;;;;;;3.57;1.87;;;;;;;19.33;61.46;100907.19;5105308;28;20049;-72
2022/06/05 06:14:14;;;;;;;9.98;2.75;;;;;;;19.20;61.49;100900.50;5096897;28;20054;-71
2022/06/05 06:16:41;;;;;;;6.22;2.35;;;;;;;19.27;61.36;100917.84;5092888;28;20056;-73
2022/06/05 06:19:08;;;;;;;6.13;2.10;;;;;;;19.18;61.53;100914.19;5082520;28;20506;-72
2022/06/05 06:21:35;;;;;;;7.60;2.47;;;;;;;19.13;61.39;100912.31;5079172;28;20139;-72
2022/06/05 06:24:09;;;;;;;4.85;2.28;;;;;;;19.20;61.22;100923.16;5090213;28;20055;-72
2022/06/05 06:26:36;;;;;;;7.63;2.53;;;;;;;19.18;61.58;100923.50;5099842;28;20024;-70
2022/06/05 06:29:04;;;;;;;5.07;2.45;;;;;;;19.20;61.38;100933.66;5102615;28;20035;-72
2022/06/05 06:31:30;;;;;;;7.38;2.20;;;;;;;19.17;61.42;100930.31;5103103;28;20048;-73
2022/06/05 06:33:57;;;;;;;5.95;2.33;;;;;;;19.08;61.21;100914.50;5109504;28;20028;-72
2022/06/05 06:36:24;;;;;;;5.18;2.63;;;;;;;19.20;61.20;100937.31;5106007;28;20032;-71
2022/06/05 06:39:11;;;;;;;7.28;3.00;;;;;;;19.17;61.31;100932.31;5115721;28;20099;-71
2022/06/05 06:41:38;;;;;;;4.18;2.22;;;;;;;19.38;61.20;100932.50;5114468;28;20035;-72
2022/06/05 06:44:05;;;;;;;5.72;1.90;;;;;;;19.80;60.98;100925.25;5102786;28;20048;-71
2022/06/05 06:46:32;;;;;;;3.38;2.10;;;;;;;20.57;60.09;100946.16;5110374;28;20705;-71
2022/06/05 06:48:59;;;;;;;4.55;1.75;;;;;;;20.83;58.86;100923.34;5098660;28;20103;-72
2022/06/05 06:51:26;;;;;;;4.97;2.38;;;;;;;21.09;58.38;100945.09;5103879;28;20071;-73
2022/06/05 06:53:53;;;;;;;3.25;1.85;;;;;;;21.21;58.04;100938.69;5100280;28;20052;-73
2022/06/05 06:56:23;;;;;;;5.18;1.73;;;;;;;21.21;57.74;100944.38;5107777;28;20028;-71
2022/06/05 06:58:54;;;;;;;4.97;1.55;;;;;;;21.07;57.90;100930.41;5105744;28;20048;-71
2022/06/05 07:01:21;;;;;;;3.00;1.58;;;;;;;21.08;57.77;100945.44;5103095;28;20065;-72
2022/06/05 07:03:49;;;;;;;2.00;1.38;;;;;;;21.19;57.29;100960.91;5107191;28;20039;-71
2022/06/05 07:06:17;;;;;;;4.90;1.30;;;;;;;21.14;57.18;100966.81;5107098;28;20047;-71
2022/06/05 07:08:44;;;;;;;7.88;2.10;;;;;;;21.10;56.99;100945.94;5102860;28;20024;-71
2022/06/05 07:11:13;;;;;;;2.15;1.23;;;;;;;21.75;56.65;100970.13;5108730;28;20032;-72
2022/06/05 07:13:46;;;;;;;6.65;1.70;;;;;;;22.30;55.99;100980.38;5099722;28;20040;-72
2022/06/05 07:16:13;;;;;;;4.68;1.58;;;;;;;22.68;55.39;100984.97;5104328;28;20031;-72
2022/06/05 07:18:41;;;;;;;3.55;1.45;;;;;;;23.14;54.44;100982.94;5117222;28;20058;-74
2022/06/05 07:21:12;;;;;;;6.43;1.67;;;;;;;23.50;53.47;100984.13;5111496;28;20051;-72
2022/06/05 07:23:40;;;;;;;5.60;1.40;;;;;;;23.62;53.44;100973.53;5103361;28;20049;-73
2022/06/05 07:26:10;;;;;;;2.53;1.70;;;;;;;23.45;53.20;100961.53;5100500;28;20097;-71
2022/06/05 07:28:38;;;;;;;5.15;2.42;;;;;;;23.48;53.20;100977.94;5100249;28;20028;-72
2022/06/05 07:31:06;;;;;;;6.07;3.65;;;;;;;23.35;52.35;100975.13;5112157;28;20040;-72
2022/06/05 07:33:35;;;;;;;1.35;1.08;;;;;;;23.30;52.87;100981.03;5097585;28;20031;-73
2022/06/05 07:36:05;;;;;;;3.28;1.63;;;;;;;23.79;52.18;100994.41;5105683;28;20056;-73
2022/06/05 07:38:34;;;;;;;6.30;1.20;;;;;;;24.30;50.87;100992.72;5107295;28;20048;-72
2022/06/05 07:41:01;;;;;;;3.92;1.50;;;;;;;24.73;50.28;100993.94;5106351;28;20043;-72
2022/06/05 07:43:28;;;;;;;3.80;1.67;;;;;;;25.16;49.60;101000.84;5102481;28;20053;-71
2022/06/05 07:45:57;;;;;;;3.13;1.60;;;;;;;25.52;48.75;100998.84;5098709;28;20032;-71
2022/06/05 07:48:24;;;;;;;7.72;3.60;;;;;;;25.79;48.30;101002.75;5106589;28;20039;-72
2022/06/05 07:56:35;;;;;;;4.57;1.60;;;;;;;26.28;46.84;101018.56;5099524;28;20039;-73
2022/06/05 07:59:02;;;;;;;3.35;1.20;;;;;;;26.42;46.84;101018.88;5097379;28;20060;-71
2022/06/05 08:01:49;;;;;;;4.10;1.20;;;;;;;26.78;46.33;101016.75;5078455;28;20055;-73
2022/06/05 08:04:16;;;;;;;6.82;1.50;;;;;;;27.04;45.54;101018.88;5074954;28;20045;-74
2022/06/05 08:06:50;;;;;;;3.90;1.30;;;;;;;27.03;45.51;101015.19;5098246;28;20040;-75
2022/06/05 08:09:17;;;;;;;2.33;1.48;;;;;;;27.00;45.53;100990.13;5101658;28;20048;-74
2022/06/05 08:11:45;;;;;;;2.13;1.17;;;;;;;26.98;45.05;100998.31;5103341;28;20235;-72
2022/06/05 08:14:14;;;;;;;2.33;1.42;;;;;;;27.07;44.98;100993.13;5082852;28;20056;-72
2022/06/05 08:16:43;;;;;;;;;;;;;;;27.15;46.62;101011.34;5085877;27;20401;-73
2022/06/05 08:19:13;;;;;;;2.65;1.23;;;;;;;27.35;44.87;101020.66;5085921;28;19931;-72
2022/06/05 08:21:41;;;;;;;5.15;1.40;;;;;;;27.38;44.14;101005.56;5098662;28;20044;-73
2022/06/05 08:24:08;;;;;;;2.40;1.23;;;;;;;27.39;43.85;101016.66;5098846;28;20330;-73
2022/06/05 08:26:36;;;;;;;4.00;1.13;;;;;;;27.24;43.58;101011.06;5097789;28;20052;-73
2022/06/05 08:29:04;;;;;;;1.13;0.82;;;;;;;27.53;42.81;101030.41;5096772;28;20048;-73
2022/06/05 08:31:32;;;;;;;2.70;1.47;;;;;;;27.35;42.45;101037.88;5092347;28;20040;-69
2022/06/05 08:34:01;;;;;;;6.40;3.00;;;;;;;27.15;41.91;101023.63;5101258;28;20070;-72
2022/06/05 08:36:29;;;;;;;2.13;1.00;;;;;;;26.80;42.35;101037.25;5094177;28;20086;-74
2022/06/05 08:42:18;;;;;;;8.15;1.50;;;;;;;25.87;44.02;101026.66;5082903;28;20068;-75
2022/06/05 08:45:16;;;;;;;3.60;1.60;;;;;;;25.38;44.50;101021.38;5074335;28;20261;-75
2022/06/05 08:47:59;;;;;;;4.30;1.58;;;;;;;24.94;44.80;101027.16;5071871;28;20574;-76
2022/06/05 08:50:37;;;;;;;4.88;1.45;;;;;;;24.56;45.54;101028.56;5076245;28;20124;-77
2022/06/05 08:53:19;;;;;;;2.60;1.38;;;;;;;24.29;45.73;101008.19;5075410;28;20578;-75
2022/06/05 08:55:48;;;;;;;4.53;1.33;;;;;;;24.41;45.54;101032.19;5071695;28;20332;-76
2022/06/05 08:58:47;;;;;;;2.58;1.23;;;;;;;24.57;45.16;101030.22;5070884;28;20540;-76
2022/06/05 09:01:28;;;;;;;;;;;;;;;24.54;46.06;101026.06;5082628;28;20128;-77
2022/06/05 09:04:27;;;;;;;3.00;1.33;;;;;;;24.59;46.21;101022.13;5088188;28;19962;-76
2022/06/05 09:07:00;;;;;;;3.97;1.20;;;;;;;24.77;45.86;101029.16;5091770;28;20083;-75
2022/06/05 09:09:38;;;;;;;5.65;1.25;;;;;;;24.79;45.24;101018.19;5091622;28;20095;-76
2022/06/05 09:12:25;;;;;;;2.30;1.38;;;;;;;24.74;45.61;101034.75;5088365;28;20167;-76
2022/06/05 09:15:25;;;;;;;2.15;1.33;;;;;;;24.48;45.71;101035.25;5085550;28;20142;-75
2022/06/05 09:17:59;;;;;;;4.13;1.25;;;;;;;24.75;45.49;101027.84;5086941;28;20075;-76
2022/06/05 09:20:38;;;;;;;5.72;1.48;;;;;;;24.76;45.18;101047.50;5087621;28;20078;-75
2022/06/05 09:23:16;;;;;;;2.25;1.00;;;;;;;24.64;45.45;101041.84;5075371;28;20087;-74
2022/06/05 09:26:11;;;;;;;2.22;1.10;;;;;;;24.36;46.01;101042.63;5071317;28;20135;-75
2022/06/05 09:29:06;;;;;;;2.80;1.17;;;;;;;24.10;46.05;101030.81;5074234;28;20554;-77
2022/06/05 09:32:09;;;;;;;1.73;1.27;;;;;;;23.96;46.37;101044.66;5079232;28;20124;-75
2022/06/05 09:34:45;;;;;;;2.47;1.23;;;;;;;23.73;46.34;101016.66;5084118;28;20059;-75
2022/06/05 09:37:19;;;;;;;4.15;1.45;;;;;;;23.95;45.62;101048.72;5077775;28;20127;-76
2022/06/05 09:39:48;;;;;;;3.28;1.80;;;;;;;23.72;46.19;101032.09;5091994;28;20084;-75
2022/06/05 09:42:46;;;;;;;2.50;1.63;;;;;;;23.85;46.00;101050.03;5091972;28;20127;-76
2022/06/05 09:45:30;;;;;;;2.25;1.23;;;;;;;24.22;45.34;101025.09;5093821;28;20052;-75
2022/06/05 09:48:07;;;;;;;6.15;1.55;;;;;;;24.41;45.75;101057.88;5089858;28;20087;-76
2022/06/05 09:50:34;;;;;;;4.22;1.52;;;;;;;24.17;45.08;101056.75;5093832;28;20490;-75
2022/06/05 09:53:01;;;;;;;3.33;1.33;;;;;;;24.02;45.71;101046.06;5078312;28;20076;-76
2022/06/05 09:55:30;;;;;;;3.72;1.33;;;;;;;23.99;45.57;101066.75;5075566;28;20560;-75
2022/06/05 09:58:27;;;;;;;6.50;1.20;;;;;;;23.68;45.75;101048.25;5089863;28;20106;-75
2022/06/05 10:00:59;;;;;;;2.97;1.77;;;;;;;23.48;46.09;101063.44;5073765;28;20048;-75
2022/06/05 10:03:40;;;;;;;2.42;1.23;;;;;;;23.24;46.07;101053.69;5075054;28;20135;-75
2022/06/05 10:06:21;;;;;;;2.88;1.27;;;;;;;23.16;46.64;101058.31;5083365;28;20121;-74
2022/06/05 10:08:53;;;;;;;3.75;2.38;;;;;;;23.16;47.41;101057.50;5093690;28;20129;-74
2022/06/05 10:11:57;;;;;;;8.82;5.57;;;;;;;23.28;46.90;101068.06;5086189;28;20123;-75
2022/06/05 10:14:45;;;;;;;5.03;1.95;;;;;;;23.38;47.21;101064.75;5074706;28;20135;-75
2022/06/05 10:17:27;;;;;;;9.25;2.58;;;;;;;23.43;47.19;101067.38;5080321;28;20083;-76
2022/06/05 10:20:13;;;;;;;9.70;2.53;;;;;;;23.54;47.59;101067.72;5074510;28;20052;-75
2022/06/05 10:22:39;;;;;;;3.80;1.50;;;;;;;23.83;46.89;101069.53;5085285;28;20052;-75
2022/06/05 10:25:33;;;;;;;4.53;1.55;;;;;;;24.01;46.57;101064.41;5093056;28;20076;-75
2022/06/05 10:28:02;;;;;;;2.70;1.60;;;;;;;24.18;46.74;101049.03;5082544;28;20503;-76
2022/06/05 10:30:49;;;;;;;3.10;1.40;;;;;;;24.49;46.05;101062.63;5094393;28;20135;-75
2022/06/05 10:33:25;;;;;;;3.08;1.08;;;;;;;24.75;46.29;101062.97;5067621;28;20091;-75
2022/06/05 10:35:58;;;;;;;4.13;1.10;;;;;;;25.47;44.94;101062.88;5090477;28;20076;-74
2022/06/05 10:38:46;;;;;;;3.08;1.17;;;;;;;26.11;44.50;101055.03;5079740;28;20087;-75
2022/06/05 10:41:43;;;;;;;2.07;1.60;;;;;;;26.38;43.88;101035.16;5086921;28;20387;-76
2022/06/05 10:44:36;;;;;;;3.08;1.30;;;;;;;26.49;43.73;101064.88;5087890;28;20135;-76
2022/06/05 10:47:22;;;;;;;2.90;1.20;;;;;;;26.29;43.32;101068.91;5080969;28;20127;-76
2022/06/05 10:50:02;;;;;;;5.22;1.35;;;;;;;25.80;43.48;101040.81;5088901;28;20048;-76
2022/06/05 10:52:34;;;;;;;1.88;1.27;;;;;;;25.73;43.54;101059.44;5085615;28;20151;-76
2022/06/05 10:55:34;;;;;;;2.80;1.15;;;;;;;25.77;43.82;101068.91;5087686;28;20088;-75
2022/06/05 10:58:07;;;;;;;7.70;1.60;;;;;;;26.32;43.31;101071.00;5070504;28;20110;-75
2022/06/05 11:01:03;;;;;;;4.18;1.30;;;;;;;26.69;42.75;101069.38;5079257;28;20151;-75
2022/06/05 11:03:52;;;;;;;3.63;1.35;;;;;;;27.10;42.27;101075.50;5015552;28;20141;-78
2022/06/05 11:06:36;;;;;;;1.33;0.90;;;;;;;27.35;41.57;101075.16;5076252;28;20079;-76
2022/06/05 11:09:18;;;;;;;2.50;1.02;;;;;;;27.37;41.07;101084.22;5073716;28;20113;-75
2022/06/05 11:14:55;;;;;;;2.55;1.08;;;;;;;26.85;41.67;101062.75;5083404;28;20081;-75
2022/06/05 11:17:42;;;;;;;4.60;1.38;;;;;;;27.00;41.53;101084.72;5087528;28;20127;-75
2022/06/05 11:20:18;;;;;;;3.22;0.98;;;;;;;26.62;41.44;101071.28;5082575;28;20550;-74
2022/06/05 11:23:20;;;;;;;48.22;23.40;;;;;;;26.59;41.66;101064.25;5071235;28;20126;-75
2022/06/05 11:25:59;;;;;;;5.18;2.38;;;;;;;27.48;41.61;101078.66;5075873;28;20068;-76
2022/06/05 11:28:53;;;;;;;4.95;1.10;;;;;;;27.79;40.83;101066.09;5092975;28;20079;-76
2022/06/05 11:32:01;;;;;;;9.88;4.55;;;;;;;28.11;40.61;101078.06;5075462;28;20147;-76
2022/06/05 11:35:06;;;;;;;4.05;2.05;;;;;;;28.52;40.75;101081.94;5060880;28;20143;-74
2022/06/05 11:37:44;;;;;;;2.85;1.17;;;;;;;28.98;39.79;101081.66;5089703;28;20071;-76
2022/06/05 11:40:45;;;;;;;5.80;1.27;;;;;;;28.76;40.09;101065.41;5088071;28;20068;-75
2022/06/05 11:43:24;;;;;;;2.67;0.95;;;;;;;28.75;39.59;101072.34;5071524;28;20055;-75
2022/06/05 11:46:21;;;;;;;1.50;1.13;;;;;;;28.22;40.20;101058.13;5077093;28;20040;-73
2022/06/05 11:49:06;;;;;;;2.88;1.63;;;;;;;28.70;39.85;101055.47;5082814;28;20075;-73
2022/06/05 11:51:58;;;;;;;7.10;1.70;;;;;;;29.32;39.70;101037.66;5073510;28;20124;-72
2022/06/05 11:54:28;;;;;;;1.60;0.95;;;;;;;29.64;38.44;101060.97;5071236;28;20534;-72
2022/06/05 11:57:14;;;;;;;2.15;1.20;;;;;;;29.32;38.31;101049.97;5077088;28;20088;-72
2022/06/05 11:59:58;;;;;;;4.65;1.23;;;;;;;29.72;38.23;101045.41;5070997;28;20091;-71
2022/06/05 12:02:48;;;;;;;2.72;1.23;;;;;;;30.50;37.46;101039.31;5075642;28;20044;-70
2022/06/05 12:05:43;;;;;;;1.67;0.73;;;;;;;31.44;36.18;101041.19;5098209;28;20132;-74
2022/06/05 12:08:23;;;;;;;2.63;0.80;;;;;;;31.02;35.76;101045.66;5077494;28;20123;-75
2022/06/05 12:11:21;;;;;;;1.92;1.20;;;;;;;31.04;35.12;101053.88;5083338;28;20505;-71
2022/06/05 12:14:21;;;;;;;2.28;1.15;;;;;;;32.52;34.04;101059.19;5073375;28;20086;-72
2022/06/05 12:17:03;;;;;;;3.72;1.33;;;;;;;32.02;33.80;101060.13;5067246;28;20091;-73
2022/06/05 12:19:51;;;;;;;3.40;2.15;;;;;;;30.89;34.28;101045.22;5083965;28;20048;-73